AirNav   Everest Fuels
 
 1475 users online  

3NY6 Six Ponds Airport
Duanesburg, New York, USA

GOING TO DUANESBURG?


FAA INFORMATION EFFECTIVE 07 NOVEMBER 2019

Location

FAA Identifier: 3NY6
Lat/Long: 42-50-28.2600N 074-10-43.4600W
42-50.471000N 074-10.724333W
42.8411833,-74.1787389
(estimated)
Elevation: 1125 ft. / 343 m (estimated)
Variation: 14W (1995)
From city: 6 miles N of DUANESBURG, NY
Time zone: UTC -5 (UTC -4 during Daylight Saving Time)
Zip code: 12137

Airport Operations

Airport use: Private use. Permission required prior to landing
Activation date: 02/1999
Control tower: no
ARTCC: BOSTON CENTER
FSS: BURLINGTON FLIGHT SERVICE STATION
Attendance: 
Wind indicator: yes
Segmented circle: no

Airport Communications

WX AWOS-3 at SCH (11 nm E): 119.275 (518-399-6586)
WX AWOS-3 at NY0 (12 nm NW): 119.225 (518-762-0322)
WX ASOS at ALB (17 nm E): PHONE 518-464-6423
WX AWOS-3 at 5B2 (19 nm NE): 132.025 (518-884-9289)

Nearby radio navigation aids

VOR radial/distance  VOR name  Freq  Var
ALBr302/17.5ALBANY VORTAC115.3013W
CAMr270/37.8CAMBRIDGE VOR/DME115.0014W
GFLr234/39.0GLENS FALLS VORTAC110.2014W

 
NDB name  Hdg/Dist  Freq  Var  ID
HUNTER280/10.835614WHEU .... . ..-
JOHNSTOWN159/11.652314WJJH .--- .--- ....

Airport Services

Runway Information

Runway 11/29

Dimensions: 3000 x 50 ft. / 914 x 15 m
Surface: turf
RUNWAY 11  RUNWAY 29
Traffic pattern: rightleft
Obstructions: 30 ft. trees, 300 ft. from runway30 ft. trees, 500 ft. from runway

Airport Ownership and Management from official FAA records

Ownership: Privately-owned
Owner: DANIEL ROSS BEJIAN
941 UPPER GREGG RD
SCHENECTADY, NY 12306-7440
Phone (518) 864-5846
Manager: MICHAEL F. BEJIAN
941 UPPER GREGG RD
SCHENECTADY, NY 12306-7440
Phone (518) 864-5846

Airport Operational Statistics

Aircraft based on the field: 1
Single engine airplanes: 1
    

Additional Remarks

FOR CD CTC ALBANY APCH AT 518-862-2299.

Instrument Procedures

There are no published instrument procedures at 3NY6.

Some nearby airports with instrument procedures:

KSCH - Schenectady County Airport (11 nm E)
NY0 - Fulton County Airport (12 nm NW)
KALB - Albany International Airport (17 nm E)
5B2 - Saratoga County Airport (19 nm NE)
4B0 - South Albany Airport (23 nm SE)
 
Loc | Ops | Rwys | IFR | FBO | Links
Com | Nav | Svcs | Stats | Notes
Area around 3NY6 (Six Ponds Airport)
 
Road maps at: MapQuest Bing Google
 
Aerial photo
No photo
 
Sectional chart

 
Airport distance calculator
Flying to Six Ponds Airport? Find the distance to fly.

From to 3NY6

Sunrise and sunset
Times for 18-Nov-2019
 Local
(UTC-5)
 Zulu
(UTC)
Morning civil twilight06:2311:23
Sunrise06:5311:53
Sunset16:3021:30
Evening civil twilight17:0122:01

Current date and time
Zulu (UTC)  18-Nov-2019 16:53:02
Local (UTC-5)  18-Nov-2019 11:53:02
 
METAR
KNY0 
12nm NW 
181635Z AUTO 06004KT 10SM OVC017 02/M02 A2987 RMK AO2
KSCH 
12nm E 
181545Z 01008KT 15SM OVC026 03/M02 A2992
KALB 
18nm E 
181551Z 01007KT 10SM BKN027 OVC036 04/M03 A2992 RMK AO2 SLP133 VCSH S-W VIS LWR S-W T00441028
TAF
KALB 
18nm E 
181121Z 1812/1912 35004KT P6SM VCSH OVC030 FM181700 33005KT P6SM VCSH OVC025 FM190400 33003KT 5SM -RAPL BR OVC015 FM191100 32003KT 2SM -SNPL BR OVC009
NOTAMs
Click for the latest NOTAMs
NOTAMs are issued by the DoD/FAA and will open in a separate window not controlled by AirNav.

 

 
 

Would you like to see your business listed on this page?

 If your business provides an interesting product or service to pilots, flight crews, aircraft, or users of the Six Ponds Airport, you should consider listing it here.  To start the listing process, click on the button below
 
Add a business
 

Other Pages about Six Ponds Airport

Update a link
 
Copyright © AirNav, LLC. All rights reserved. Privacy Policy  Contact